createdAt,value
2018-12-11T00:00:00.035Z,0
2018-12-11T00:00:52.584Z,0
2018-12-11T00:01:47.152Z,0
2018-12-11T00:02:40.226Z,0
2018-12-11T00:03:34.182Z,0
2018-12-11T00:04:27.384Z,0
2018-12-11T00:05:21.084Z,0
2018-12-11T00:06:15.733Z,0
2018-12-11T00:07:20.289Z,0
2018-12-11T00:08:13.478Z,0
2018-12-11T00:10:46.845Z,0
2018-12-11T00:11:27.266Z,0
2018-12-11T00:12:07.704Z,0
2018-12-11T00:12:48.070Z,0
2018-12-11T00:13:28.461Z,0
2018-12-11T00:14:08.867Z,0
2018-12-11T00:14:49.281Z,0
2018-12-11T00:15:29.651Z,0
2018-12-11T00:16:10.062Z,0
2018-12-11T00:16:50.462Z,0
2018-12-11T00:17:30.804Z,0
2018-12-11T00:18:11.224Z,0
2018-12-11T00:18:51.597Z,0
2018-12-11T00:19:31.985Z,0
2018-12-11T00:20:12.393Z,0
2018-12-11T00:20:52.785Z,0
2018-12-11T00:21:33.157Z,0
2018-12-11T00:22:13.551Z,0
2018-12-11T00:22:53.935Z,0
2018-12-11T00:23:34.306Z,0
2018-12-11T00:24:14.719Z,0
2018-12-11T00:27:01.358Z,0
2018-12-11T00:27:54.608Z,0
2018-12-11T00:28:49.121Z,0
2018-12-11T00:29:41.638Z,0
2018-12-11T00:30:38.325Z,0
2018-12-11T00:31:32.546Z,0
2018-12-11T00:32:27.574Z,0
2018-12-11T00:33:22.591Z,0
2018-12-11T00:34:16.647Z,0
2018-12-11T00:35:10.853Z,0
2018-12-11T00:36:03.467Z,0
2018-12-11T00:37:02.859Z,0
2018-12-11T00:37:56.477Z,0
2018-12-11T00:38:49.123Z,0
2018-12-11T00:39:42.171Z,0
2018-12-11T00:42:33.346Z,0
2018-12-11T00:43:13.756Z,0
2018-12-11T00:43:54.156Z,0
2018-12-11T00:44:34.591Z,0
2018-12-11T00:45:14.954Z,0
2018-12-11T00:45:55.393Z,0
2018-12-11T00:46:35.759Z,0
2018-12-11T00:47:16.172Z,0
2018-12-11T00:47:56.579Z,0
2018-12-11T00:48:36.961Z,0
2018-12-11T00:49:17.338Z,0
2018-12-11T00:49:57.754Z,0
2018-12-11T00:50:38.160Z,0
2018-12-11T00:51:18.537Z,0
2018-12-11T00:51:58.925Z,0
2018-12-11T00:52:39.324Z,0
2018-12-11T00:53:19.715Z,0
2018-12-11T00:54:00.158Z,0
2018-12-11T00:54:40.524Z,0
2018-12-11T00:55:20.923Z,0
2018-12-11T00:56:01.337Z,0
2018-12-11T00:56:41.750Z,0
2018-12-11T00:57:22.151Z,0
2018-12-11T00:58:02.536Z,0
2018-12-11T00:58:42.959Z,0
2018-12-11T00:59:23.364Z,0
2018-12-11T01:00:03.759Z,0
2018-12-11T01:00:44.154Z,0
2018-12-11T01:01:24.538Z,0
2018-12-11T01:02:04.955Z,0
2018-12-11T01:02:45.359Z,0
2018-12-11T01:03:25.772Z,0
2018-12-11T01:04:06.202Z,0
2018-12-11T01:04:46.591Z,0
2018-12-11T01:05:26.988Z,0
2018-12-11T01:06:07.400Z,0
2018-12-11T01:06:47.832Z,0
2018-12-11T01:07:28.183Z,0
2018-12-11T01:08:08.621Z,0
2018-12-11T01:08:49.029Z,0
2018-12-11T01:09:29.494Z,0
2018-12-11T01:10:09.834Z,0
2018-12-11T01:10:50.224Z,0
2018-12-11T01:11:30.589Z,0
2018-12-11T01:12:10.990Z,0
2018-12-11T01:12:51.331Z,0
2018-12-11T01:13:31.723Z,0
2018-12-11T01:14:12.106Z,0
2018-12-11T01:14:52.497Z,0
2018-12-11T01:17:22.155Z,0
2018-12-11T01:18:02.903Z,0
2018-12-11T01:18:43.039Z,0
2018-12-11T01:19:23.467Z,0
2018-12-11T01:20:03.931Z,0
2018-12-11T01:20:44.262Z,0
2018-12-11T01:21:24.611Z,0
2018-12-11T01:22:05.032Z,0
2018-12-11T01:22:45.394Z,0
2018-12-11T01:23:25.799Z,0
2018-12-11T01:24:06.202Z,0
2018-12-11T01:24:46.581Z,0
2018-12-11T01:25:26.979Z,0
2018-12-11T01:26:07.351Z,0
2018-12-11T01:26:47.752Z,0
2018-12-11T01:27:28.192Z,0
2018-12-11T01:28:08.531Z,0
2018-12-11T01:28:48.933Z,0
2018-12-11T01:29:29.316Z,0
2018-12-11T01:30:09.724Z,0
2018-12-11T01:30:50.135Z,0
2018-12-11T01:31:30.505Z,0
2018-12-11T01:35:03.776Z,0
2018-12-11T01:35:57.692Z,0
2018-12-11T01:36:49.692Z,0
2018-12-11T01:37:42.571Z,0
2018-12-11T01:38:36.078Z,0
2018-12-11T01:39:30.252Z,0
2018-12-11T01:40:27.029Z,0
2018-12-11T01:41:20.971Z,0
2018-12-11T01:42:15.596Z,0
2018-12-11T01:43:09.054Z,0
2018-12-11T01:44:02.402Z,0
2018-12-11T01:44:55.228Z,0
2018-12-11T01:45:49.174Z,0
2018-12-11T01:46:41.736Z,0
2018-12-11T01:47:34.890Z,0
2018-12-11T01:48:28.153Z,0
2018-12-11T01:49:24.127Z,0
2018-12-11T01:50:16.657Z,0
2018-12-11T01:51:13.511Z,0
2018-12-11T01:52:10.095Z,0
2018-12-11T01:53:02.914Z,0
2018-12-11T01:53:56.046Z,0
2018-12-11T01:54:50.177Z,0
2018-12-11T01:55:36.061Z,0
2018-12-11T01:56:17.748Z,0
2018-12-11T01:56:58.561Z,0
2018-12-11T01:57:40.268Z,0
2018-12-11T01:58:23.154Z,0
2018-12-11T01:59:05.531Z,0
2018-12-11T01:59:49.775Z,0
2018-12-11T02:00:33.962Z,0
2018-12-11T02:01:14.730Z,0
2018-12-11T02:01:56.747Z,0
2018-12-11T02:02:39.127Z,0
2018-12-11T02:03:20.499Z,0
2018-12-11T02:04:01.003Z,0
2018-12-11T02:04:42.409Z,0
2018-12-11T02:05:24.084Z,0
2018-12-11T02:06:05.175Z,0
2018-12-11T02:06:46.168Z,0
2018-12-11T02:07:26.964Z,0
2018-12-11T02:09:46.032Z,0
2018-12-11T02:10:26.591Z,0
2018-12-11T02:11:06.961Z,0
2018-12-11T02:11:47.360Z,0
2018-12-11T02:12:27.761Z,0
2018-12-11T02:13:08.161Z,0
2018-12-11T02:13:48.546Z,0
2018-12-11T02:14:28.979Z,0
2018-12-11T02:15:09.354Z,0
2018-12-11T02:15:49.760Z,0
2018-12-11T02:16:30.182Z,0
2018-12-11T02:17:10.598Z,0
2018-12-11T02:17:50.992Z,0
2018-12-11T02:18:31.391Z,0
2018-12-11T02:19:11.790Z,0
2018-12-11T02:19:52.170Z,0
2018-12-11T02:20:32.570Z,0
2018-12-11T02:21:12.964Z,0
2018-12-11T02:21:53.336Z,0
2018-12-11T02:22:33.747Z,0
2018-12-11T02:23:14.115Z,0
2018-12-11T02:23:54.485Z,0
2018-12-11T02:24:34.886Z,0
2018-12-11T02:25:15.300Z,0
2018-12-11T02:25:55.659Z,0
2018-12-11T02:26:36.052Z,0
2018-12-11T02:29:10.789Z,0
2018-12-11T02:29:51.184Z,0
2018-12-11T02:30:31.581Z,0
2018-12-11T02:31:11.968Z,0
2018-12-11T02:31:52.367Z,0
2018-12-11T02:32:32.767Z,0
2018-12-11T02:33:13.187Z,0
2018-12-11T02:33:53.583Z,0
2018-12-11T02:34:33.976Z,0
2018-12-11T02:35:14.374Z,0
2018-12-11T02:35:54.777Z,0
2018-12-11T02:36:35.177Z,0
2018-12-11T02:37:15.627Z,0
2018-12-11T02:37:56.024Z,0
2018-12-11T02:38:36.428Z,0
2018-12-11T02:39:16.812Z,0
2018-12-11T02:39:57.238Z,0
2018-12-11T02:40:37.648Z,0
2018-12-11T02:41:18.067Z,0
2018-12-11T02:41:58.514Z,0
2018-12-11T02:42:38.873Z,0
2018-12-11T02:43:19.244Z,0
2018-12-11T02:43:59.661Z,0
2018-12-11T02:44:40.054Z,0
2018-12-11T02:45:20.515Z,0
2018-12-11T02:46:00.864Z,0
2018-12-11T02:46:41.249Z,0
2018-12-11T02:47:21.639Z,0
2018-12-11T02:48:02.053Z,0
2018-12-11T02:48:42.436Z,0
2018-12-11T02:49:22.810Z,0
2018-12-11T02:50:03.223Z,0
2018-12-11T02:50:43.646Z,0
2018-12-11T02:51:24.038Z,0
2018-12-11T02:52:04.444Z,0
2018-12-11T02:52:44.840Z,0
2018-12-11T02:53:25.243Z,0
2018-12-11T02:54:05.630Z,0
2018-12-11T02:54:46.058Z,0
2018-12-11T02:55:26.461Z,0
2018-12-11T02:56:06.837Z,0
2018-12-11T02:56:47.211Z,0
2018-12-11T02:57:27.629Z,0
2018-12-11T02:58:07.996Z,0
2018-12-11T02:58:48.383Z,0
2018-12-11T02:59:28.807Z,0
2018-12-11T03:00:09.203Z,0
2018-12-11T03:00:49.589Z,0
2018-12-11T03:01:29.985Z,0
2018-12-11T03:02:10.352Z,0
2018-12-11T03:02:50.757Z,0
2018-12-11T03:03:31.172Z,0
2018-12-11T03:04:11.530Z,0
2018-12-11T03:04:51.923Z,0
2018-12-11T03:05:32.298Z,0
2018-12-11T03:06:12.698Z,0
2018-12-11T03:06:53.094Z,0
2018-12-11T03:07:33.497Z,0
2018-12-11T03:08:13.861Z,0
2018-12-11T03:08:54.235Z,0
2018-12-11T03:11:32.623Z,0
2018-12-11T03:12:12.580Z,0
2018-12-11T03:12:52.980Z,0
2018-12-11T03:13:33.402Z,0
2018-12-11T03:14:13.810Z,0
2018-12-11T03:14:54.182Z,0
2018-12-11T03:15:34.638Z,0
2018-12-11T03:16:14.969Z,0
2018-12-11T03:16:55.381Z,0
2018-12-11T03:17:35.776Z,0
2018-12-11T03:18:16.254Z,0
2018-12-11T03:18:56.560Z,0
2018-12-11T03:19:36.931Z,0
2018-12-11T03:20:17.346Z,0
2018-12-11T03:20:57.740Z,0
2018-12-11T03:21:38.142Z,0
2018-12-11T03:22:18.566Z,0
2018-12-11T03:22:58.970Z,0
2018-12-11T03:23:39.400Z,0
2018-12-11T03:24:19.756Z,0
2018-12-11T03:25:00.150Z,0
2018-12-11T03:25:40.554Z,0
2018-12-11T03:26:20.938Z,0
2018-12-11T03:27:01.286Z,0
2018-12-11T03:27:41.696Z,0
2018-12-11T03:28:22.095Z,0
2018-12-11T03:29:02.496Z,0
2018-12-11T03:29:42.893Z,0
2018-12-11T03:30:23.275Z,0
2018-12-11T03:31:03.669Z,0
2018-12-11T03:31:44.070Z,0
2018-12-11T03:32:24.448Z,0
2018-12-11T03:33:04.849Z,0
2018-12-11T03:33:45.259Z,0
2018-12-11T03:36:23.223Z,0
2018-12-11T03:37:03.473Z,0
2018-12-11T03:37:43.839Z,0
2018-12-11T03:38:24.235Z,0
2018-12-11T03:39:04.651Z,0
2018-12-11T03:39:45.040Z,0
2018-12-11T03:40:25.413Z,0
2018-12-11T03:41:05.796Z,0
2018-12-11T03:41:46.243Z,0
2018-12-11T03:42:26.625Z,0
2018-12-11T03:43:07.008Z,0
2018-12-11T03:43:47.422Z,0
2018-12-11T03:44:27.814Z,0
2018-12-11T03:45:08.207Z,0
2018-12-11T03:47:25.736Z,0
2018-12-11T03:48:06.143Z,0
2018-12-11T03:48:46.521Z,0
2018-12-11T03:49:26.896Z,0
2018-12-11T03:50:07.334Z,0
2018-12-11T03:50:47.675Z,0
2018-12-11T03:51:28.106Z,0
2018-12-11T03:52:08.489Z,0
2018-12-11T03:52:48.859Z,0
2018-12-11T03:53:29.260Z,0
2018-12-11T03:54:09.670Z,0
2018-12-11T03:54:50.084Z,0
2018-12-11T03:55:30.480Z,0
2018-12-11T03:56:10.898Z,0
2018-12-11T03:56:51.285Z,0
2018-12-11T03:57:31.688Z,0
2018-12-11T03:58:12.071Z,0
2018-12-11T04:00:24.696Z,0
2018-12-11T04:01:05.092Z,0
2018-12-11T04:01:45.498Z,0
2018-12-11T04:02:25.893Z,0
2018-12-11T04:03:06.679Z,0
2018-12-11T04:03:46.841Z,0
2018-12-11T04:04:27.247Z,0
2018-12-11T04:05:07.653Z,0
2018-12-11T04:05:48.054Z,0
2018-12-11T04:06:28.471Z,0
2018-12-11T04:07:08.883Z,0
2018-12-11T04:07:49.299Z,0
2018-12-11T04:08:29.715Z,0
2018-12-11T04:09:10.135Z,0
2018-12-11T04:09:50.523Z,0
2018-12-11T04:12:18.224Z,0
2018-12-11T04:12:58.578Z,0
2018-12-11T04:13:39.002Z,0
2018-12-11T04:14:19.381Z,0
2018-12-11T04:14:59.789Z,0
2018-12-11T04:15:40.183Z,0
2018-12-11T04:16:20.573Z,0
2018-12-11T04:17:00.981Z,0
2018-12-11T04:17:41.332Z,0
2018-12-11T04:18:21.696Z,0
2018-12-11T04:19:02.106Z,0
2018-12-11T04:19:42.492Z,0
2018-12-11T04:20:22.910Z,0
2018-12-11T04:21:03.309Z,0
2018-12-11T04:21:43.716Z,0
2018-12-11T04:22:24.121Z,0
2018-12-11T04:23:04.587Z,0
2018-12-11T04:23:44.902Z,0
2018-12-11T04:24:25.354Z,0
2018-12-11T04:25:05.709Z,0
2018-12-11T04:25:46.138Z,0
2018-12-11T04:26:26.538Z,0
2018-12-11T04:27:06.958Z,0
2018-12-11T04:27:47.360Z,0
2018-12-11T05:06:51.227Z,0
2018-12-11T05:07:31.634Z,0
2018-12-11T05:08:12.021Z,0
2018-12-11T05:08:52.411Z,0
2018-12-11T05:09:32.829Z,0
2018-12-11T05:10:13.194Z,0
2018-12-11T05:10:53.545Z,0
2018-12-11T05:11:33.942Z,0
2018-12-11T05:12:14.358Z,0
2018-12-11T05:12:54.765Z,0
2018-12-11T05:13:35.162Z,0
2018-12-11T05:14:15.897Z,0
2018-12-11T05:14:56.319Z,0
2018-12-11T05:15:36.747Z,0
2018-12-11T05:16:17.119Z,0
2018-12-11T05:16:57.544Z,0
2018-12-11T05:17:37.947Z,0
2018-12-11T05:18:18.350Z,0
2018-12-11T05:18:59.067Z,0
2018-12-11T05:19:39.504Z,0
2018-12-11T05:20:19.840Z,0
2018-12-11T05:21:00.239Z,0
2018-12-11T05:21:40.649Z,0
2018-12-11T05:22:21.069Z,0
2018-12-11T05:23:01.488Z,0
2018-12-11T05:23:41.902Z,0
2018-12-11T05:24:22.346Z,0
2018-12-11T05:25:02.841Z,0
2018-12-11T05:25:43.255Z,0
2018-12-11T05:26:23.643Z,0
2018-12-11T05:27:04.027Z,0
2018-12-11T05:27:44.513Z,0
2018-12-11T05:28:24.889Z,0
2018-12-11T05:29:05.372Z,0
2018-12-11T05:29:45.682Z,0
2018-12-11T05:32:20.314Z,0
2018-12-11T05:33:00.643Z,0
2018-12-11T05:33:41.019Z,0
2018-12-11T05:34:21.438Z,0
2018-12-11T05:35:01.809Z,0
2018-12-11T05:35:42.200Z,0
2018-12-11T05:36:22.589Z,0
2018-12-11T05:37:03.025Z,0
2018-12-11T05:37:43.372Z,0
2018-12-11T05:38:23.821Z,0
2018-12-11T05:39:04.166Z,0
2018-12-11T05:39:44.582Z,0
2018-12-11T05:40:24.989Z,0
2018-12-11T05:41:05.358Z,0
2018-12-11T05:41:45.774Z,0
2018-12-11T05:44:13.827Z,0
2018-12-11T05:44:54.150Z,0
2018-12-11T05:45:34.496Z,0
2018-12-11T05:46:14.909Z,0
2018-12-11T05:46:55.318Z,0
2018-12-11T05:47:35.761Z,0
2018-12-11T05:48:16.309Z,0
2018-12-11T05:48:56.560Z,0
2018-12-11T05:49:36.940Z,0
2018-12-11T05:50:17.359Z,0
2018-12-11T05:50:57.769Z,0
2018-12-11T05:51:38.192Z,0
2018-12-11T05:52:18.590Z,0
2018-12-11T05:52:59.020Z,0
2018-12-11T05:53:39.366Z,0
2018-12-11T05:54:19.817Z,0
2018-12-11T05:55:00.140Z,0
2018-12-11T05:55:40.519Z,0
2018-12-11T05:56:20.898Z,0
2018-12-11T05:57:01.309Z,0
2018-12-11T05:57:41.785Z,0
2018-12-11T05:58:22.168Z,0
2018-12-11T05:59:02.550Z,0
2018-12-11T05:59:42.965Z,0
2018-12-11T06:00:23.382Z,0
2018-12-11T06:01:03.758Z,0
2018-12-11T06:01:44.350Z,0
2018-12-11T06:02:24.753Z,0
2018-12-11T06:03:05.249Z,0
2018-12-11T06:03:45.619Z,0
2018-12-11T06:04:25.979Z,0
2018-12-11T06:05:06.411Z,0
2018-12-11T06:05:46.826Z,0
2018-12-11T06:06:27.223Z,0
2018-12-11T06:07:07.622Z,0
2018-12-11T06:07:48.017Z,0
2018-12-11T06:08:28.393Z,0
2018-12-11T06:09:08.761Z,0
2018-12-11T06:09:49.166Z,0
2018-12-11T06:10:29.566Z,0
2018-12-11T06:11:09.991Z,0
2018-12-11T06:11:50.342Z,0
2018-12-11T06:12:30.758Z,0
2018-12-11T06:13:11.096Z,0
2018-12-11T06:15:23.798Z,0
2018-12-11T06:16:03.991Z,0
2018-12-11T06:16:44.382Z,0
2018-12-11T06:17:24.779Z,0
2018-12-11T06:18:05.158Z,0
2018-12-11T06:18:45.571Z,0
2018-12-11T06:19:25.980Z,0
2018-12-11T06:20:06.397Z,0
2018-12-11T06:20:46.799Z,0
2018-12-11T06:21:27.160Z,0
2018-12-11T06:22:07.561Z,0
2018-12-11T06:22:47.943Z,0
2018-12-11T06:23:28.395Z,0
2018-12-11T06:24:08.775Z,0
2018-12-11T06:24:49.405Z,0
2018-12-11T06:25:29.690Z,0
2018-12-11T06:26:10.103Z,0
2018-12-11T06:26:50.461Z,0
2018-12-11T06:27:30.857Z,0
2018-12-11T06:28:11.259Z,0
2018-12-11T06:28:51.727Z,0
2018-12-11T06:29:32.121Z,0
2018-12-11T06:30:12.573Z,0
2018-12-11T06:30:53.004Z,0
2018-12-11T06:31:33.538Z,0
2018-12-11T06:32:13.952Z,0
2018-12-11T06:32:54.454Z,0
2018-12-11T06:33:34.884Z,0
2018-12-11T06:34:15.269Z,0
2018-12-11T06:34:55.667Z,0
2018-12-11T06:35:36.033Z,0
2018-12-11T06:36:16.478Z,0
2018-12-11T06:36:56.810Z,0
2018-12-11T06:37:37.243Z,0
2018-12-11T06:38:17.623Z,0
2018-12-11T06:38:57.990Z,0
2018-12-11T06:39:38.427Z,0
2018-12-11T06:40:19.454Z,0
2018-12-11T06:40:59.824Z,0
2018-12-11T06:41:40.241Z,0
2018-12-11T06:42:20.712Z,0
2018-12-11T06:43:01.136Z,0
2018-12-11T06:43:41.515Z,0
2018-12-11T06:44:21.938Z,0
2018-12-11T06:45:02.365Z,0
2018-12-11T06:45:42.950Z,0
2018-12-11T06:46:23.472Z,0
2018-12-11T06:47:03.930Z,0
2018-12-11T06:47:45.152Z,0
2018-12-11T06:48:25.149Z,0
2018-12-11T06:49:05.871Z,0
2018-12-11T06:49:46.371Z,0
2018-12-11T06:50:26.828Z,0
2018-12-11T06:51:07.314Z,0
2018-12-11T06:51:47.968Z,0
2018-12-11T06:52:28.294Z,0
2018-12-11T06:53:08.753Z,0
2018-12-11T06:53:49.164Z,0
2018-12-11T06:54:31.314Z,0
2018-12-11T06:55:11.783Z,0
2018-12-11T06:55:52.155Z,0
2018-12-11T06:56:32.568Z,0
2018-12-11T06:57:12.965Z,0
2018-12-11T06:57:54.333Z,0
2018-12-11T06:58:34.933Z,0
2018-12-11T06:59:16.270Z,0
2018-12-11T06:59:56.718Z,0
2018-12-11T07:00:37.026Z,0
2018-12-11T07:01:17.424Z,0
2018-12-11T07:01:58.824Z,0
2018-12-11T07:02:39.210Z,0
2018-12-11T07:03:19.868Z,0
2018-12-11T07:04:00.225Z,0
2018-12-11T07:04:40.639Z,0
2018-12-11T07:05:21.050Z,0
2018-12-11T07:06:01.462Z,0
2018-12-11T07:06:41.848Z,0
2018-12-11T07:07:22.293Z,0
2018-12-11T07:08:02.699Z,0
2018-12-11T07:10:30.554Z,0
2018-12-11T07:11:10.993Z,0
2018-12-11T07:11:51.410Z,0
2018-12-11T07:12:31.788Z,0
2018-12-11T07:13:12.203Z,0
2018-12-11T07:13:52.623Z,0
2018-12-11T07:14:33.167Z,0
2018-12-11T07:15:13.598Z,0
2018-12-11T07:15:54.388Z,0
2018-12-11T07:16:36.746Z,0
2018-12-11T07:17:15.723Z,0
2018-12-11T07:17:56.133Z,0
2018-12-11T07:18:36.564Z,0
2018-12-11T07:19:17.892Z,0
2018-12-11T07:19:57.494Z,0
2018-12-11T07:20:37.923Z,0
2018-12-11T07:21:18.310Z,0
2018-12-11T07:21:58.733Z,0
2018-12-11T07:22:39.189Z,0
2018-12-11T07:23:19.718Z,0
2018-12-11T07:24:00.709Z,0
2018-12-11T07:24:41.551Z,0
2018-12-11T07:25:21.848Z,0
2018-12-11T07:26:02.227Z,0
2018-12-11T07:26:42.655Z,0
2018-12-11T07:27:24.111Z,0
2018-12-11T07:28:03.592Z,0
2018-12-11T07:28:44.021Z,0
2018-12-11T07:29:24.397Z,0
2018-12-11T07:30:05.112Z,0
2018-12-11T07:30:45.922Z,0
2018-12-11T07:31:26.744Z,0
2018-12-11T07:32:07.706Z,0
2018-12-11T07:32:48.317Z,0
2018-12-11T07:33:28.815Z,0
2018-12-11T07:34:09.257Z,0
2018-12-11T07:34:49.627Z,0
2018-12-11T07:35:30.061Z,0
2018-12-11T07:36:10.483Z,0
2018-12-11T07:36:50.941Z,0
2018-12-11T07:37:31.307Z,0
2018-12-11T07:38:11.739Z,0
2018-12-11T07:38:52.110Z,0
2018-12-11T07:39:32.512Z,0
2018-12-11T07:40:13.087Z,0
2018-12-11T07:40:53.465Z,0
2018-12-11T07:41:33.897Z,0
2018-12-11T07:42:14.298Z,0
2018-12-11T07:42:54.671Z,0
2018-12-11T07:43:35.109Z,0
2018-12-11T07:44:15.947Z,0
2018-12-11T07:44:56.453Z,0
2018-12-11T07:45:36.872Z,0
2018-12-11T07:46:17.597Z,0
2018-12-11T07:46:58.088Z,0
2018-12-11T07:47:38.625Z,0
2018-12-11T07:48:19.235Z,0
2018-12-11T07:48:59.957Z,0
2018-12-11T07:49:40.436Z,0
2018-12-11T07:50:20.814Z,0
2018-12-11T07:51:01.510Z,0
2018-12-11T07:51:41.860Z,0
2018-12-11T07:52:22.371Z,0
2018-12-11T07:53:06.282Z,0
2018-12-11T07:53:43.336Z,0
2018-12-11T07:54:23.739Z,0
2018-12-11T07:55:04.164Z,0
2018-12-11T07:55:44.621Z,0
2018-12-11T07:56:25.036Z,0
2018-12-11T07:57:08.457Z,0
2018-12-11T07:57:50.104Z,5
2018-12-11T07:58:29.493Z,5
2018-12-11T07:59:09.872Z,5
2018-12-11T07:59:50.291Z,5
2018-12-11T08:00:30.707Z,5
2018-12-11T08:01:11.216Z,0
2018-12-11T08:01:51.761Z,0
2018-12-11T08:02:32.145Z,0
2018-12-11T08:03:12.766Z,0
2018-12-11T08:03:53.053Z,0
2018-12-11T08:04:33.812Z,0
2018-12-11T08:05:16.530Z,0
2018-12-11T08:05:57.415Z,0
2018-12-11T08:06:37.877Z,0
2018-12-11T08:07:19.115Z,0
2018-12-11T08:07:59.941Z,0
2018-12-11T08:08:40.959Z,0
2018-12-11T08:09:20.929Z,0
2018-12-11T08:10:01.973Z,5
2018-12-11T08:10:42.370Z,0
2018-12-11T08:11:25.499Z,0
2018-12-11T08:12:08.347Z,5
2018-12-11T08:12:46.540Z,5
2018-12-11T08:13:27.203Z,5
2018-12-11T08:14:09.766Z,5
2018-12-11T08:14:49.070Z,5
2018-12-11T08:15:30.070Z,5
2018-12-11T08:17:48.274Z,5
2018-12-11T08:18:28.771Z,10
2018-12-11T08:19:09.466Z,10
2018-12-11T08:19:49.915Z,10
2018-12-11T08:20:30.320Z,10
2018-12-11T08:21:10.670Z,10
2018-12-11T08:23:24.046Z,15
2018-12-11T08:24:04.789Z,15
2018-12-11T08:24:45.233Z,10
2018-12-11T08:25:25.669Z,10
2018-12-11T08:26:06.145Z,10
2018-12-11T08:26:46.556Z,10
2018-12-11T08:27:26.909Z,5
2018-12-11T08:28:07.369Z,10
2018-12-11T08:28:47.787Z,10
2018-12-11T08:32:07.013Z,15
2018-12-11T08:32:47.771Z,15
2018-12-11T08:33:28.654Z,15
2018-12-11T08:34:09.045Z,15
2018-12-11T08:34:49.663Z,15
2018-12-11T08:35:30.964Z,15
2018-12-11T08:36:11.485Z,15
2018-12-11T08:36:52.415Z,15
2018-12-11T08:37:41.250Z,15
2018-12-11T08:38:22.052Z,15
2018-12-11T08:39:02.884Z,15
2018-12-11T08:39:43.296Z,15
2018-12-11T08:40:24.973Z,15
2018-12-11T08:41:05.486Z,15
2018-12-11T08:41:45.883Z,15
2018-12-11T08:42:26.415Z,20
2018-12-11T08:43:06.869Z,15
2018-12-11T08:43:47.288Z,15
2018-12-11T08:44:27.629Z,20
2018-12-11T08:45:08.352Z,20
2018-12-11T08:45:48.684Z,30
2018-12-11T08:46:29.134Z,30
2018-12-11T08:47:11.387Z,30
2018-12-11T08:47:52.054Z,30
2018-12-11T08:48:32.569Z,30
2018-12-11T08:49:13.236Z,30
2018-12-11T08:49:53.620Z,30
2018-12-11T08:50:34.091Z,30
2018-12-11T08:51:14.774Z,30
2018-12-11T08:51:55.168Z,30
2018-12-11T08:52:35.607Z,30
2018-12-11T08:53:15.991Z,35
2018-12-11T08:53:56.368Z,35
2018-12-11T08:54:37.026Z,35
2018-12-11T08:55:18.284Z,35
2018-12-11T08:55:59.106Z,35
2018-12-11T08:56:39.577Z,35
2018-12-11T08:57:20.128Z,35
2018-12-11T08:58:01.494Z,35
2018-12-11T08:58:41.475Z,35
2018-12-11T08:59:22.506Z,35
2018-12-11T09:00:02.996Z,35
2018-12-11T09:00:47.494Z,30
2018-12-11T09:01:27.922Z,30
2018-12-11T09:02:08.346Z,30
2018-12-11T09:02:50.900Z,35
2018-12-11T09:03:30.469Z,30
2018-12-11T09:04:10.908Z,30
2018-12-11T09:04:51.327Z,25
2018-12-11T09:05:31.714Z,25
2018-12-11T09:06:12.102Z,25
2018-12-11T09:06:52.519Z,25
2018-12-11T09:07:32.950Z,25
2018-12-11T09:08:13.404Z,30
2018-12-11T09:08:53.768Z,30
2018-12-11T09:09:34.712Z,30
2018-12-11T09:10:15.123Z,30
2018-12-11T09:10:55.622Z,30
2018-12-11T09:11:35.997Z,30
2018-12-11T09:12:16.417Z,30
2018-12-11T09:12:56.892Z,30
2018-12-11T09:13:37.256Z,30
2018-12-11T09:14:18.535Z,30
2018-12-11T09:14:58.591Z,30
2018-12-11T09:15:39.282Z,25
2018-12-11T09:18:19.463Z,25
2018-12-11T09:19:00.921Z,25
2018-12-11T09:19:41.200Z,25
2018-12-11T09:20:21.628Z,25
2018-12-11T09:21:02.245Z,25
2018-12-11T09:21:42.600Z,25
2018-12-11T09:22:23.979Z,25
2018-12-11T09:23:04.358Z,25
2018-12-11T09:23:44.861Z,25
2018-12-11T09:24:25.358Z,25
2018-12-11T09:25:06.540Z,25
2018-12-11T09:25:46.417Z,25
2018-12-11T09:26:28.247Z,25
2018-12-11T09:27:07.390Z,25
2018-12-11T09:27:48.000Z,25
2018-12-11T09:28:28.488Z,25
2018-12-11T09:29:08.912Z,25
2018-12-11T09:29:49.913Z,25
2018-12-11T09:30:30.230Z,20
2018-12-11T09:31:11.973Z,25
2018-12-11T09:31:52.097Z,20
2018-12-11T09:32:35.574Z,25
2018-12-11T09:33:15.871Z,25
2018-12-11T09:33:56.311Z,25
2018-12-11T09:34:36.774Z,25
2018-12-11T09:35:17.294Z,25
2018-12-11T09:35:58.721Z,25
2018-12-11T09:36:39.120Z,25
2018-12-11T09:37:19.554Z,25
2018-12-11T09:38:00.015Z,25
2018-12-11T09:38:40.495Z,25
2018-12-11T09:39:20.908Z,20
2018-12-11T09:40:01.278Z,20
2018-12-11T09:40:41.713Z,20
2018-12-11T09:43:21.418Z,20
2018-12-11T09:44:01.639Z,20
2018-12-11T09:44:42.064Z,20
2018-12-11T09:45:22.520Z,15
2018-12-11T09:46:02.864Z,15
2018-12-11T09:46:43.377Z,15
2018-12-11T09:47:23.798Z,15
2018-12-11T09:49:58.556Z,15
2018-12-11T09:50:39.322Z,15
2018-12-11T09:51:19.632Z,15
2018-12-11T09:52:00.808Z,15
2018-12-11T09:52:41.791Z,15
2018-12-11T09:53:22.436Z,15
2018-12-11T09:54:02.689Z,15
2018-12-11T09:54:44.297Z,15
2018-12-11T09:55:24.892Z,15
2018-12-11T09:56:09.077Z,15
2018-12-11T09:56:50.073Z,10
2018-12-11T09:57:31.233Z,10
2018-12-11T09:58:12.285Z,10
2018-12-11T09:58:53.078Z,10
2018-12-11T09:59:35.068Z,15
2018-12-11T10:01:51.969Z,15
2018-12-11T10:02:34.283Z,15
2018-12-11T10:03:14.133Z,15
2018-12-11T10:03:57.552Z,10
2018-12-11T10:04:38.399Z,10
2018-12-11T10:07:28.965Z,10
2018-12-11T10:08:10.775Z,10
2018-12-11T10:08:52.566Z,10
2018-12-11T10:09:33.362Z,10
2018-12-11T10:10:15.999Z,10
2018-12-11T10:10:55.744Z,10
2018-12-11T10:11:36.282Z,10
2018-12-11T10:12:18.018Z,10
2018-12-11T10:12:59.911Z,10
2018-12-11T10:13:40.606Z,10
2018-12-11T10:14:21.185Z,10
2018-12-11T10:15:01.621Z,10
2018-12-11T10:15:42.018Z,10
2018-12-11T10:16:22.849Z,10
2018-12-11T10:17:03.478Z,10
2018-12-11T10:17:44.046Z,10
2018-12-11T10:18:26.374Z,10
2018-12-11T10:19:06.418Z,10
2018-12-11T10:19:46.899Z,10
2018-12-11T10:20:29.492Z,10
2018-12-11T10:21:10.022Z,10
2018-12-11T10:21:50.533Z,10
2018-12-11T10:22:30.878Z,10
2018-12-11T10:23:11.273Z,10
2018-12-11T10:23:51.683Z,10
2018-12-11T10:24:32.185Z,10
2018-12-11T10:25:12.608Z,10
2018-12-11T10:25:54.188Z,10
2018-12-11T10:28:27.163Z,10
2018-12-11T10:29:07.300Z,10
2018-12-11T11:07:11.616Z,5
2018-12-11T11:07:52.174Z,10
2018-12-11T11:08:33.500Z,10
2018-12-11T11:09:14.626Z,10
2018-12-11T11:09:57.043Z,10
2018-12-11T11:10:37.827Z,10
2018-12-11T11:11:21.071Z,10
2018-12-11T11:12:03.987Z,10
2018-12-11T11:12:46.115Z,10
2018-12-11T11:13:28.969Z,10
2018-12-11T11:14:11.467Z,10
2018-12-11T11:14:53.409Z,10
2018-12-11T11:15:35.630Z,10
2018-12-11T11:16:17.516Z,10
2018-12-11T11:16:57.494Z,10
2018-12-11T11:17:38.186Z,10
2018-12-11T11:18:18.664Z,10
2018-12-11T11:19:02.659Z,10
2018-12-11T11:19:43.509Z,10
2018-12-11T11:20:23.508Z,10
2018-12-11T11:21:05.255Z,10
2018-12-11T11:21:44.632Z,10
2018-12-11T11:22:25.396Z,10
2018-12-11T11:23:06.226Z,10
2018-12-11T11:23:48.061Z,10
2018-12-11T11:24:28.033Z,10
2018-12-11T11:25:08.792Z,10
2018-12-11T11:25:49.554Z,10
2018-12-11T11:28:29.248Z,10
2018-12-11T11:29:10.827Z,10
2018-12-11T11:29:50.783Z,10
2018-12-11T11:30:31.571Z,10
2018-12-11T11:31:12.049Z,10
2018-12-11T11:31:53.671Z,10
2018-12-11T11:32:34.542Z,10
2018-12-11T11:33:15.732Z,10
2018-12-11T11:33:58.491Z,10
2018-12-11T11:34:37.566Z,10
2018-12-11T11:35:18.529Z,10
2018-12-11T11:35:59.413Z,15
2018-12-11T11:36:40.380Z,15
2018-12-11T11:37:22.113Z,15
2018-12-11T11:38:02.180Z,15
2018-12-11T11:38:42.748Z,15
2018-12-11T11:39:24.235Z,15
2018-12-11T11:40:04.809Z,15
2018-12-11T11:40:45.720Z,10
2018-12-11T11:41:26.530Z,15
2018-12-11T11:42:07.333Z,15
2018-12-11T11:42:48.588Z,15
2018-12-11T11:43:29.735Z,15
2018-12-11T11:44:09.878Z,15
2018-12-11T11:44:52.107Z,15
2018-12-11T11:45:32.907Z,15
2018-12-11T11:46:14.110Z,15
2018-12-11T11:46:55.008Z,15
2018-12-11T11:47:36.175Z,15
2018-12-11T11:48:18.634Z,15
2018-12-11T11:48:58.187Z,15
2018-12-11T11:49:38.869Z,15
2018-12-11T11:50:20.803Z,15
2018-12-11T11:51:00.520Z,15
2018-12-11T11:51:40.895Z,15
2018-12-11T11:52:21.420Z,15
2018-12-11T11:53:01.948Z,15
2018-12-11T11:53:42.437Z,15
2018-12-11T11:54:22.875Z,15
2018-12-11T11:55:03.211Z,15
2018-12-11T11:55:43.597Z,15
2018-12-11T11:56:24.027Z,15
2018-12-11T11:57:05.165Z,15
2018-12-11T11:57:45.898Z,15
2018-12-11T11:58:26.296Z,15
2018-12-11T11:59:06.730Z,20
2018-12-11T11:59:47.143Z,15
2018-12-11T12:00:30.067Z,15
2018-12-11T12:01:16.100Z,15
2018-12-11T12:02:03.083Z,15
2018-12-11T12:02:44.229Z,15
2018-12-11T12:03:25.924Z,15
2018-12-11T12:04:06.406Z,20
2018-12-11T12:04:46.837Z,20
2018-12-11T12:05:27.163Z,20
2018-12-11T12:06:07.638Z,20
2018-12-11T12:06:48.078Z,20
2018-12-11T12:07:28.740Z,20
2018-12-11T12:08:09.610Z,20
2018-12-11T12:12:04.894Z,20
2018-12-11T12:12:45.427Z,20